Time;durP1;ratioP1;P1;durP2;ratioP2;P2;SDS_P1;SDS_P2;PMS_P1;PMS_P2;Temp;Humidity;BMP_temperature;BMP_pressure;BME280_temperature;BME280_humidity;BME280_pressure;Samples;Min_cycle;Max_cycle;Signal;HPM_P1;HPM_P2
2021/11/12 00:14:07;;;;;;;131.00;55.10;;;;;;;;;;4463399;32;20591;-53
2021/11/12 00:16:33;;;;;;;103.23;51.83;;;;;;;;;;4463712;32;20233;-54
2021/11/12 00:18:58;;;;;;;87.97;45.43;;;;;;;;;;4463259;32;20283;-55
2021/11/12 00:21:24;;;;;;;87.70;46.73;;;;;;;;;;4451784;32;20758;-55
2021/11/12 00:23:50;;;;;;;85.00;45.23;;;;;;;;;;4450070;32;20706;-56
2021/11/12 00:26:15;;;;;;;96.20;48.17;;;;;;;;;;4447771;32;20548;-55
2021/11/12 00:28:50;;;;;;;96.73;48.07;;;;;;;;;;4447878;32;20581;-56
2021/11/12 00:31:26;;;;;;;98.87;51.00;;;;;;;;;;4447739;32;20215;-54
2021/11/12 00:39:16;;;;;;;112.37;51.67;;;;;;;;;;4448860;32;20284;-54
2021/11/12 00:41:48;;;;;;;107.67;52.50;;;;;;;;;;4461875;32;20584;-55
2021/11/12 00:44:24;;;;;;;114.20;54.47;;;;;;;;;;4463490;32;20184;-54
2021/11/12 00:47:01;;;;;;;108.80;51.50;;;;;;;;;;4463115;32;20294;-54
2021/11/12 00:49:30;;;;;;;115.90;52.87;;;;;;;;;;4461922;32;20302;-54
2021/11/12 00:52:27;;;;;;;104.90;52.50;;;;;;;;;;4462219;32;20299;-54
2021/11/12 00:54:44;;;;;;;100.30;50.47;;;;;;;;;;4463327;32;20346;-55
2021/11/12 00:57:10;;;;;;;105.13;47.83;;;;;;;;;;4462851;32;20626;-55
2021/11/12 00:59:35;;;;;;;100.83;48.23;;;;;;;;;;4463138;32;20435;-55
2021/11/12 01:02:01;;;;;;;84.23;42.97;;;;;;;;;;4462781;32;20236;-54
2021/11/12 01:04:26;;;;;;;86.60;40.97;;;;;;;;;;4461431;32;20342;-54
2021/11/12 01:06:52;;;;;;;83.47;38.23;;;;;;;;;;4461571;32;20307;-54
2021/11/12 01:09:20;;;;;;;86.33;43.47;;;;;;;;;;4462869;32;20755;-55
2021/11/12 01:11:48;;;;;;;85.57;44.87;;;;;;;;;;4462983;32;20271;-54
2021/11/12 01:14:20;;;;;;;79.73;40.37;;;;;;;;;;4461847;32;20230;-55
2021/11/12 01:16:45;;;;;;;75.17;37.47;;;;;;;;;;4462957;32;20228;-53
2021/11/12 01:19:11;;;;;;;83.43;37.10;;;;;;;;;;4462995;32;20787;-55
2021/11/12 01:21:37;;;;;;;72.47;38.23;;;;;;;;;;4462708;32;20337;-54
2021/11/12 01:24:03;;;;;;;93.93;40.60;;;;;;;;;;4462458;32;20246;-54
2021/11/12 01:26:29;;;;;;;85.53;37.77;;;;;;;;;;4462840;32;20243;-55
2021/11/12 01:28:55;;;;;;;87.50;37.37;;;;;;;;;;4461810;32;20337;-54
2021/11/12 01:31:28;;;;;;;76.93;36.03;;;;;;;;;;4461594;32;20277;-56
2021/11/12 01:33:57;;;;;;;91.07;37.13;;;;;;;;;;4462999;32;20578;-54
2021/11/12 01:38:48;;;;;;;74.97;36.50;;;;;;;;;;4462856;32;20290;-57
2021/11/12 01:41:15;;;;;;;86.03;40.13;;;;;;;;;;4462685;32;20275;-55
2021/11/12 01:43:44;;;;;;;80.80;36.57;;;;;;;;;;4462876;32;20662;-54
2021/11/12 01:51:27;;;;;;;80.63;37.67;;;;;;;;;;4465866;32;20216;-53
2021/11/12 02:01:53;;;;;;;92.63;40.20;;;;;;;;;;4465044;32;20231;-53
2021/11/12 02:04:28;;;;;;;88.30;41.00;;;;;;;;;;4464870;32;20279;-54
2021/11/12 02:06:56;;;;;;;91.27;41.83;;;;;;;;;;4463482;32;20291;-55
2021/11/12 02:09:22;;;;;;;84.50;41.60;;;;;;;;;;4465414;32;20509;-55
2021/11/12 02:11:55;;;;;;;91.90;40.57;;;;;;;;;;4465571;32;20309;-54
2021/11/12 02:14:22;;;;;;;99.10;43.53;;;;;;;;;;4465333;32;20199;-54
2021/11/12 02:17:20;;;;;;;110.00;46.73;;;;;;;;;;4464042;32;20235;-54
2021/11/12 02:19:51;;;;;;;103.10;44.07;;;;;;;;;;4465153;32;20291;-54
2021/11/12 02:22:17;;;;;;;79.50;37.73;;;;;;;;;;4463880;32;20707;-54
2021/11/12 02:24:56;;;;;;;87.77;38.80;;;;;;;;;;4455643;32;20316;-55
2021/11/12 02:27:27;;;;;;;73.83;35.97;;;;;;;;;;4449730;32;20232;-54
2021/11/12 02:29:55;;;;;;;80.83;37.27;;;;;;;;;;4449563;32;20675;-54
2021/11/12 02:32:26;;;;;;;73.77;37.83;;;;;;;;;;4456328;32;20220;-54
2021/11/12 02:34:55;;;;;;;73.27;36.50;;;;;;;;;;4465036;32;20307;-54
2021/11/12 02:37:22;;;;;;;68.87;35.53;;;;;;;;;;4463919;32;20648;-55
2021/11/12 02:39:48;;;;;;;67.77;35.60;;;;;;;;;;4465004;32;20250;-54
2021/11/12 02:42:14;;;;;;;73.37;35.93;;;;;;;;;;4463494;32;20775;-55
2021/11/12 02:44:42;;;;;;;71.17;34.00;;;;;;;;;;4465111;32;20479;-55
2021/11/12 02:47:10;;;;;;;56.57;29.93;;;;;;;;;;4464434;32;20220;-55
2021/11/12 02:49:37;;;;;;;61.20;27.83;;;;;;;;;;4465016;32;20688;-53
2021/11/12 02:52:08;;;;;;;61.23;29.17;;;;;;;;;;4464970;32;20232;-54
2021/11/12 02:54:34;;;;;;;56.23;29.77;;;;;;;;;;4465157;32;20208;-54
2021/11/12 02:57:01;;;;;;;58.57;28.30;;;;;;;;;;4464672;32;20263;-53
2021/11/12 02:59:27;;;;;;;65.90;28.10;;;;;;;;;;4464388;32;20439;-55
2021/11/12 03:01:55;;;;;;;63.37;30.17;;;;;;;;;;4462969;32;20236;-54
2021/11/12 03:04:22;;;;;;;65.17;29.63;;;;;;;;;;4463810;32;20200;-54
2021/11/12 03:06:48;;;;;;;79.53;33.10;;;;;;;;;;4449253;32;20254;-54
2021/11/12 03:09:14;;;;;;;76.13;32.53;;;;;;;;;;4449052;32;20523;-54
2021/11/12 03:11:42;;;;;;;73.87;29.87;;;;;;;;;;4457679;32;20318;-55
2021/11/12 03:14:09;;;;;;;92.00;34.43;;;;;;;;;;4463022;32;20264;-54
2021/11/12 03:16:35;;;;;;;79.50;32.83;;;;;;;;;;4464203;32;20255;-55
2021/11/12 03:19:03;;;;;;;81.03;30.90;;;;;;;;;;4464300;32;20294;-56
2021/11/12 03:21:29;;;;;;;80.27;31.63;;;;;;;;;;4464170;32;20339;-54
2021/11/12 03:24:00;;;;;;;87.53;33.00;;;;;;;;;;4463781;32;20720;-54
2021/11/12 03:26:35;;;;;;;88.77;31.40;;;;;;;;;;4464143;32;20283;-54
2021/11/12 04:01:56;;;;;;;83.53;34.27;;;;;;;;;;4463264;32;20758;-54
2021/11/12 04:07:36;;;;;;;92.10;34.40;;;;;;;;;;4420606;32;20751;-54
2021/11/12 04:18:32;;;;;;;84.60;34.03;;;;;;;;;;4446826;32;20271;-53
2021/11/12 05:34:52;;;;;;;111.47;53.40;;;;;;;;;;4450401;32;20892;-54
2021/11/12 05:45:43;;;;;;;106.53;50.77;;;;;;;;;;4450154;32;20673;-54
2021/11/12 05:56:07;;;;;;;99.80;46.93;;;;;;;;;;4465686;32;20262;-54
2021/11/12 05:58:33;;;;;;;99.93;45.17;;;;;;;;;;4460204;32;20299;-54
2021/11/12 06:00:59;;;;;;;114.57;45.73;;;;;;;;;;4448500;32;20270;-54
2021/11/12 06:03:24;;;;;;;114.87;48.13;;;;;;;;;;4450277;32;20558;-54
2021/11/12 06:05:50;;;;;;;121.47;52.63;;;;;;;;;;4460263;32;20267;-54
2021/11/12 06:08:16;;;;;;;116.40;53.03;;;;;;;;;;4465485;32;20411;-56
2021/11/12 06:10:42;;;;;;;118.87;54.80;;;;;;;;;;4465584;32;20597;-55
2021/11/12 06:13:07;;;;;;;133.40;54.00;;;;;;;;;;4465092;32;20413;-55
2021/11/12 06:15:34;;;;;;;119.87;51.63;;;;;;;;;;4465811;32;20735;-55
2021/11/12 06:18:00;;;;;;;135.17;54.83;;;;;;;;;;4463850;32;20259;-55
2021/11/12 06:20:26;;;;;;;129.87;55.57;;;;;;;;;;4465346;32;20275;-54
2021/11/12 06:22:52;;;;;;;137.63;53.13;;;;;;;;;;4465311;32;20319;-55
2021/11/12 06:25:17;;;;;;;108.07;50.07;;;;;;;;;;4452088;32;20700;-55
2021/11/12 06:27:43;;;;;;;132.03;52.10;;;;;;;;;;4448735;32;20229;-55
2021/11/12 06:30:10;;;;;;;124.70;52.10;;;;;;;;;;4449913;32;20268;-56
2021/11/12 06:32:36;;;;;;;124.10;53.60;;;;;;;;;;4449670;32;20668;-56
2021/11/12 06:35:02;;;;;;;136.83;54.10;;;;;;;;;;4449277;32;20314;-55
2021/11/12 06:37:27;;;;;;;126.10;54.10;;;;;;;;;;4448288;32;20739;-55
2021/11/12 06:39:53;;;;;;;131.90;58.87;;;;;;;;;;4448143;32;20337;-55
2021/11/12 06:42:20;;;;;;;153.93;60.67;;;;;;;;;;4449280;32;20220;-55
2021/11/12 06:52:36;;;;;;;122.23;51.07;;;;;;;;;;4465294;32;20246;-56
2021/11/12 06:55:03;;;;;;;98.50;48.63;;;;;;;;;;4464129;32;20531;-55
2021/11/12 06:57:29;;;;;;;102.17;43.70;;;;;;;;;;4462624;32;20294;-55
2021/11/12 06:59:55;;;;;;;85.27;44.33;;;;;;;;;;4461966;32;20310;-55
2021/11/12 07:02:22;;;;;;;64.77;33.93;;;;;;;;;;4462239;32;20248;-55
2021/11/12 07:04:48;;;;;;;60.57;33.57;;;;;;;;;;4459208;32;20244;-56
2021/11/12 07:07:14;;;;;;;72.43;38.80;;;;;;;;;;4446760;32;20380;-55
2021/11/12 07:09:39;;;;;;;45.27;23.60;;;;;;;;;;4446891;32;20303;-55
2021/11/12 07:12:06;;;;;;;48.90;24.70;;;;;;;;;;4460176;32;20224;-55
2021/11/12 07:14:31;;;;;;;50.23;28.53;;;;;;;;;;4464486;32;20324;-55
2021/11/12 07:16:57;;;;;;;31.63;21.07;;;;;;;;;;4464403;32;20284;-55
2021/11/12 07:19:22;;;;;;;30.97;19.97;;;;;;;;;;4462863;32;20672;-55
2021/11/12 07:21:48;;;;;;;38.50;20.57;;;;;;;;;;4464524;32;20236;-55
2021/11/12 07:24:15;;;;;;;36.47;20.60;;;;;;;;;;4464412;32;20306;-55
2021/11/12 07:26:40;;;;;;;48.10;23.57;;;;;;;;;;4464393;32;20260;-55
2021/11/12 07:29:05;;;;;;;46.00;24.17;;;;;;;;;;4464139;32;20342;-55
2021/11/12 07:31:32;;;;;;;46.33;23.13;;;;;;;;;;4462824;32;20579;-54
2021/11/12 07:34:00;;;;;;;51.03;28.40;;;;;;;;;;4463348;32;20317;-56
2021/11/12 07:36:47;;;;;;;40.67;21.40;;;;;;;;;;4464387;32;20598;-55
2021/11/12 07:39:35;;;;;;;50.60;24.40;;;;;;;;;;4464302;32;20442;-56
2021/11/12 07:47:15;;;;;;;48.00;25.23;;;;;;;;;;4463583;32;20371;-55
2021/11/12 07:49:55;;;;;;;56.53;29.03;;;;;;;;;;4464303;32;20204;-55
2021/11/12 07:52:27;;;;;;;63.23;32.87;;;;;;;;;;4450253;32;20262;-55
2021/11/12 07:54:52;;;;;;;52.63;27.93;;;;;;;;;;4447754;32;20409;-56
2021/11/12 07:57:18;;;;;;;62.57;34.93;;;;;;;;;;4448916;32;20261;-55
2021/11/12 07:59:44;;;;;;;52.97;31.13;;;;;;;;;;4447648;32;20466;-56
2021/11/12 08:02:12;;;;;;;64.20;33.97;;;;;;;;;;4447974;32;20260;-55
2021/11/12 08:04:38;;;;;;;50.60;32.27;;;;;;;;;;4449708;32;20396;-55
2021/11/12 08:07:04;;;;;;;73.17;38.70;;;;;;;;;;4462684;32;20755;-55
2021/11/12 08:09:38;;;;;;;60.83;34.17;;;;;;;;;;4462967;32;20398;-55
2021/11/12 08:12:06;;;;;;;71.73;31.90;;;;;;;;;;4451548;32;20243;-56
2021/11/12 08:17:23;;;;;;;69.57;39.53;;;;;;;;;;4448275;32;20220;-56
2021/11/12 08:19:54;;;;;;;76.87;41.27;;;;;;;;;;4447824;32;20644;-55
2021/11/12 08:22:28;;;;;;;78.37;42.40;;;;;;;;;;4448208;32;20240;-54
2021/11/12 08:25:20;;;;;;;68.87;38.30;;;;;;;;;;4455913;32;20636;-54
2021/11/12 08:30:28;;;;;;;61.27;35.57;;;;;;;;;;4463745;32;20188;-56
2021/11/12 08:33:31;;;;;;;72.03;38.50;;;;;;;;;;4463643;32;20287;-56
2021/11/12 08:38:53;;;;;;;67.47;39.93;;;;;;;;;;4439166;32;20633;-56
2021/11/12 08:41:26;;;;;;;73.57;42.03;;;;;;;;;;4447818;32;20231;-55
2021/11/12 08:43:58;;;;;;;80.63;43.40;;;;;;;;;;4447954;32;20246;-55
2021/11/12 08:46:30;;;;;;;72.97;42.53;;;;;;;;;;4446756;32;20223;-55
2021/11/12 08:49:07;;;;;;;85.87;47.13;;;;;;;;;;4448340;32;20204;-56
2021/11/12 08:51:37;;;;;;;87.80;46.60;;;;;;;;;;4447700;32;20303;-55
2021/11/12 08:54:04;;;;;;;85.63;42.40;;;;;;;;;;4447717;32;20584;-55
2021/11/12 08:56:30;;;;;;;71.67;40.10;;;;;;;;;;4448014;32;20232;-56
2021/11/12 08:58:56;;;;;;;57.50;32.20;;;;;;;;;;4447890;32;20329;-56
2021/11/12 09:01:22;;;;;;;57.23;30.00;;;;;;;;;;4447402;32;20379;-55
2021/11/12 09:03:49;;;;;;;54.10;29.47;;;;;;;;;;4448306;32;20244;-55
2021/11/12 09:06:15;;;;;;;58.07;29.43;;;;;;;;;;4450964;32;20392;-55
2021/11/12 09:08:41;;;;;;;46.07;25.87;;;;;;;;;;4447942;32;20350;-55
2021/11/12 09:11:08;;;;;;;45.50;23.97;;;;;;;;;;4446767;32;20248;-56
2021/11/12 09:16:12;;;;;;;46.77;23.90;;;;;;;;;;4447704;32;20216;-55
2021/11/12 09:18:48;;;;;;;41.90;24.83;;;;;;;;;;4447774;32;20722;-55
2021/11/12 09:21:15;;;;;;;49.70;26.60;;;;;;;;;;4447453;32;20271;-55
2021/11/12 09:23:41;;;;;;;47.80;27.60;;;;;;;;;;4448825;32;20621;-56
2021/11/12 09:26:07;;;;;;;55.80;31.53;;;;;;;;;;4448498;32;20275;-55
2021/11/12 09:28:33;;;;;;;60.20;34.97;;;;;;;;;;4447407;32;20392;-56
2021/11/12 09:31:00;;;;;;;70.33;37.00;;;;;;;;;;4447246;32;20275;-55
2021/11/12 09:33:25;;;;;;;71.77;39.63;;;;;;;;;;4460279;32;20279;-56
2021/11/12 09:35:51;;;;;;;60.20;33.80;;;;;;;;;;4462630;32;20648;-55
2021/11/12 09:38:16;;;;;;;59.93;34.47;;;;;;;;;;4462580;32;20371;-55
2021/11/12 09:40:42;;;;;;;57.40;33.80;;;;;;;;;;4461279;32;20294;-55
2021/11/12 09:43:08;;;;;;;67.93;32.37;;;;;;;;;;4459133;32;20213;-56
2021/11/12 09:45:34;;;;;;;54.57;28.67;;;;;;;;;;4447138;32;20628;-56
2021/11/12 09:47:59;;;;;;;56.40;28.90;;;;;;;;;;4446957;32;20240;-55
2021/11/12 09:50:29;;;;;;;50.43;27.63;;;;;;;;;;4447028;32;20596;-55
2021/11/12 09:52:58;;;;;;;47.47;24.07;;;;;;;;;;4447350;32;20342;-56
2021/11/12 09:55:24;;;;;;;37.23;22.57;;;;;;;;;;4447221;32;20276;-55
2021/11/12 09:57:50;;;;;;;30.77;21.50;;;;;;;;;;4447500;32;20327;-55
2021/11/12 10:00:21;;;;;;;46.63;22.33;;;;;;;;;;4447143;32;20313;-55
2021/11/12 10:02:49;;;;;;;42.83;25.00;;;;;;;;;;4457029;32;20510;-56
2021/11/12 10:05:46;;;;;;;43.17;23.50;;;;;;;;;;4462330;32;20243;-55
2021/11/12 10:08:33;;;;;;;49.40;24.60;;;;;;;;;;4435656;32;20220;-55
2021/11/12 10:11:05;;;;;;;49.27;22.97;;;;;;;;;;4465792;32;20370;-55
2021/11/12 10:13:39;;;;;;;34.83;22.30;;;;;;;;;;4466447;32;20254;-55
2021/11/12 10:19:08;;;;;;;36.83;20.90;;;;;;;;;;4466222;32;20682;-55
2021/11/12 10:21:38;;;;;;;34.33;20.90;;;;;;;;;;4465847;32;20303;-56
2021/11/12 10:24:06;;;;;;;35.27;20.87;;;;;;;;;;4465406;32;20246;-55
2021/11/12 10:26:34;;;;;;;32.83;18.63;;;;;;;;;;4465758;32;20223;-56
2021/11/12 10:29:11;;;;;;;33.20;21.13;;;;;;;;;;4465667;32;20235;-55
2021/11/12 10:31:41;;;;;;;33.97;20.03;;;;;;;;;;4465381;32;20584;-54
2021/11/12 10:34:19;;;;;;;32.50;18.63;;;;;;;;;;4463471;32;20267;-55
2021/11/12 10:36:51;;;;;;;30.10;19.10;;;;;;;;;;4465612;32;20530;-56
2021/11/12 10:39:25;;;;;;;44.40;20.63;;;;;;;;;;4464952;32;20305;-56
2021/11/12 10:41:50;;;;;;;32.77;20.20;;;;;;;;;;4465027;32;20216;-56
2021/11/12 10:44:16;;;;;;;36.07;19.00;;;;;;;;;;4461765;32;20337;-56
2021/11/12 10:46:43;;;;;;;29.73;18.33;;;;;;;;;;4464775;32;20250;-55
2021/11/12 10:49:39;;;;;;;49.23;23.37;;;;;;;;;;4464708;32;20629;-56
2021/11/12 10:52:15;;;;;;;32.10;20.27;;;;;;;;;;4455228;32;20227;-56
2021/11/12 10:57:16;;;;;;;37.53;19.67;;;;;;;;;;4464576;32;20249;-56
2021/11/12 10:59:55;;;;;;;30.97;19.53;;;;;;;;;;4464919;32;20798;-56
2021/11/12 11:02:25;;;;;;;32.20;18.87;;;;;;;;;;4464429;32;20739;-56
2021/11/12 11:04:50;;;;;;;28.53;18.00;;;;;;;;;;4460848;32;20235;-56
2021/11/12 11:07:21;;;;;;;29.23;17.03;;;;;;;;;;4447896;32;20229;-55
2021/11/12 11:09:47;;;;;;;29.93;18.70;;;;;;;;;;4449418;32;20715;-56
2021/11/12 11:12:43;;;;;;;34.30;19.20;;;;;;;;;;4461271;32;20270;-56
2021/11/12 11:15:15;;;;;;;37.47;19.40;;;;;;;;;;4454273;32;20591;-56
2021/11/12 11:17:48;;;;;;;37.33;19.40;;;;;;;;;;4463354;32;20288;-55
2021/11/12 11:20:21;;;;;;;26.43;16.17;;;;;;;;;;4464471;32;20204;-55
2021/11/12 11:22:57;;;;;;;28.07;17.37;;;;;;;;;;4464319;32;20307;-56
2021/11/12 11:25:24;;;;;;;29.33;16.73;;;;;;;;;;4454251;32;20569;-56
2021/11/12 11:27:52;;;;;;;31.07;16.23;;;;;;;;;;4450883;32;20219;-56
2021/11/12 11:30:17;;;;;;;33.13;19.87;;;;;;;;;;4463927;32;20615;-55
2021/11/12 11:32:45;;;;;;;37.97;19.10;;;;;;;;;;4462866;32;20248;-56
2021/11/12 11:35:11;;;;;;;36.53;22.57;;;;;;;;;;4464233;32;20204;-55
2021/11/12 11:37:36;;;;;;;45.50;21.30;;;;;;;;;;4464202;32;20325;-56
2021/11/12 11:40:03;;;;;;;38.53;18.53;;;;;;;;;;4464143;32;20325;-56
2021/11/12 11:42:30;;;;;;;32.53;19.33;;;;;;;;;;4463932;32;20220;-56
2021/11/12 11:44:56;;;;;;;34.47;21.03;;;;;;;;;;4464238;32;20353;-56
2021/11/12 11:47:23;;;;;;;31.03;21.20;;;;;;;;;;4464463;32;20279;-55
2021/11/12 11:49:51;;;;;;;34.30;21.83;;;;;;;;;;4464782;32;20292;-56
2021/11/12 11:52:27;;;;;;;38.83;22.20;;;;;;;;;;4463187;32;20332;-55
2021/11/12 11:54:54;;;;;;;39.93;23.57;;;;;;;;;;4464572;32;20568;-55
2021/11/12 11:57:25;;;;;;;35.70;22.13;;;;;;;;;;4464384;32;20219;-55
2021/11/12 12:00:25;;;;;;;37.77;22.43;;;;;;;;;;4464724;32;20188;-56
2021/11/12 12:03:23;;;;;;;33.87;19.77;;;;;;;;;;4464503;32;20278;-55
2021/11/12 12:06:09;;;;;;;35.73;18.87;;;;;;;;;;4454221;32;20248;-55
2021/11/12 12:08:47;;;;;;;35.47;20.20;;;;;;;;;;4449186;32;20251;-56
2021/11/12 12:11:23;;;;;;;45.93;21.67;;;;;;;;;;4448992;32;20608;-55
2021/11/12 12:14:23;;;;;;;42.33;23.13;;;;;;;;;;4448899;32;20227;-54
2021/11/12 12:17:10;;;;;;;35.57;21.10;;;;;;;;;;4449144;32;20236;-55
2021/11/12 12:20:05;;;;;;;40.67;24.30;;;;;;;;;;4448961;32;20187;-55
2021/11/12 13:25:52;;;;;;;23.27;14.07;;;;;;;;;;4452421;32;20637;-55
2021/11/12 13:28:25;;;;;;;29.63;17.20;;;;;;;;;;4452006;32;20708;-55
2021/11/12 13:30:55;;;;;;;33.67;19.50;;;;;;;;;;4464177;32;20197;-54
2021/11/12 13:33:52;;;;;;;45.53;24.30;;;;;;;;;;4463804;32;20196;-56
2021/11/12 13:36:20;;;;;;;36.33;21.37;;;;;;;;;;4463605;32;20286;-55
2021/11/12 13:39:00;;;;;;;37.10;22.37;;;;;;;;;;4463669;32;20211;-56
2021/11/12 13:41:30;;;;;;;33.73;20.63;;;;;;;;;;4462223;32;20266;-55
2021/11/12 13:44:11;;;;;;;31.97;19.53;;;;;;;;;;4449730;32;20212;-55
2021/11/12 13:46:48;;;;;;;29.70;19.37;;;;;;;;;;4465816;32;20764;-55
2021/11/12 13:49:24;;;;;;;37.23;19.23;;;;;;;;;;4466597;32;20379;-55
2021/11/12 13:51:50;;;;;;;35.83;20.43;;;;;;;;;;4466678;32;20786;-54
2021/11/12 13:54:16;;;;;;;41.17;23.43;;;;;;;;;;4466482;32;20298;-55
2021/11/12 13:56:41;;;;;;;60.37;29.43;;;;;;;;;;4465549;32;20256;-54
2021/11/12 13:59:11;;;;;;;61.30;33.73;;;;;;;;;;4465249;32;20330;-55
2021/11/12 14:01:37;;;;;;;86.57;40.43;;;;;;;;;;4466483;32;20691;-55
2021/11/12 14:04:19;;;;;;;108.73;48.27;;;;;;;;;;4465405;32;20264;-55
2021/11/12 14:06:47;;;;;;;117.27;51.60;;;;;;;;;;4466734;32;20254;-56
2021/11/12 14:09:19;;;;;;;64.87;35.33;;;;;;;;;;4466429;32;20256;-55
2021/11/12 14:11:45;;;;;;;68.43;32.87;;;;;;;;;;4466658;32;20570;-55
2021/11/12 14:14:18;;;;;;;55.90;31.17;;;;;;;;;;4466420;32;20321;-57
2021/11/12 14:16:51;;;;;;;55.13;29.47;;;;;;;;;;4466179;32;20244;-55
2021/11/12 14:27:32;;;;;;;57.13;37.27;;;;;;;;;;4452286;32;20288;-55
2021/11/12 14:46:52;;;;;;;79.10;43.03;;;;;;;;;;4450477;32;20219;-55
2021/11/12 14:49:23;;;;;;;69.70;41.63;;;;;;;;;;4466000;32;20707;-55
2021/11/12 14:54:49;;;;;;;66.47;37.47;;;;;;;;;;4465573;32;20243;-55
2021/11/12 14:59:46;;;;;;;80.13;44.27;;;;;;;;;;4465868;32;20200;-54
2021/11/12 15:02:12;;;;;;;76.73;47.57;;;;;;;;;;4465617;32;20667;-54
2021/11/12 15:04:38;;;;;;;74.43;39.97;;;;;;;;;;4463531;32;20381;-55
2021/11/12 15:07:04;;;;;;;98.50;47.80;;;;;;;;;;4450414;32;20265;-55
2021/11/12 15:09:32;;;;;;;82.83;46.83;;;;;;;;;;4453762;32;20676;-54
2021/11/12 15:12:05;;;;;;;107.27;58.27;;;;;;;;;;4465505;32;20224;-55
2021/11/12 15:14:37;;;;;;;115.33;65.40;;;;;;;;;;4465197;32;20258;-55
2021/11/12 15:17:05;;;;;;;126.70;64.33;;;;;;;;;;4464195;32;20221;-55
2021/11/12 15:19:34;;;;;;;123.50;64.60;;;;;;;;;;4465269;32;20365;-54
2021/11/12 15:27:11;;;;;;;122.13;60.77;;;;;;;;;;4465685;32;20217;-55
2021/11/12 15:29:41;;;;;;;117.43;58.50;;;;;;;;;;4465678;32;20395;-55
2021/11/12 15:32:12;;;;;;;113.97;55.90;;;;;;;;;;4465395;32;20909;-55
2021/11/12 15:34:47;;;;;;;126.67;68.83;;;;;;;;;;4465445;32;20189;-55
2021/11/12 15:40:15;;;;;;;146.17;80.17;;;;;;;;;;4463346;32;20271;-55
2021/11/12 15:45:37;;;;;;;138.70;73.17;;;;;;;;;;4463788;32;20261;-55
2021/11/12 15:48:18;;;;;;;152.67;79.53;;;;;;;;;;4463624;32;20248;-54
2021/11/12 16:13:45;;;;;;;150.23;77.90;;;;;;;;;;4463013;32;20212;-54
2021/11/12 16:18:50;;;;;;;141.07;73.30;;;;;;;;;;4462803;32;20382;-55
2021/11/12 16:21:33;;;;;;;162.73;80.73;;;;;;;;;;4462940;32;20239;-54
2021/11/12 16:26:31;;;;;;;135.60;69.17;;;;;;;;;;4464331;32;20806;-55
2021/11/12 16:29:11;;;;;;;127.07;65.93;;;;;;;;;;4464431;32;20275;-55
2021/11/12 16:31:38;;;;;;;130.30;69.50;;;;;;;;;;4464377;32;20228;-54
2021/11/12 16:34:11;;;;;;;108.43;63.60;;;;;;;;;;4463100;32;20259;-55
2021/11/12 16:36:42;;;;;;;123.50;65.23;;;;;;;;;;4463121;32;20292;-54
2021/11/12 16:39:08;;;;;;;131.63;66.10;;;;;;;;;;4462962;32;20323;-55
2021/11/12 16:41:36;;;;;;;114.40;64.50;;;;;;;;;;4463831;32;20307;-54
2021/11/12 16:46:54;;;;;;;111.27;58.97;;;;;;;;;;4462557;32;20236;-54
2021/11/12 17:00:24;;;;;;;139.83;72.10;;;;;;;;;;4456039;32;20208;-55
2021/11/12 17:07:21;;;;;;;107.07;57.80;;;;;;;;;;4454389;32;20292;-54
2021/11/12 17:10:03;;;;;;;112.50;62.57;;;;;;;;;;4448935;32;20263;-55
2021/11/12 17:47:28;;;;;;;102.20;60.63;;;;;;;;;;4451087;32;20278;-54
2021/11/12 17:50:33;;;;;;;120.20;62.60;;;;;;;;;;4462499;32;20244;-55
2021/11/12 18:03:42;;;;;;;112.57;60.20;;;;;;;;;;4450949;32;20754;-56
2021/11/12 18:13:46;;;;;;;100.13;54.93;;;;;;;;;;4466319;32;20567;-55
2021/11/12 21:47:19;;;;;;;120.77;65.67;;;;;;;;;;4463028;32;20323;-55
2021/11/12 21:49:45;;;;;;;130.57;67.10;;;;;;;;;;4463513;32;20745;-55
2021/11/12 21:52:10;;;;;;;146.03;67.37;;;;;;;;;;4462955;32;20437;-54
2021/11/12 21:54:36;;;;;;;123.63;65.47;;;;;;;;;;4459014;32;20283;-57
2021/11/12 21:57:02;;;;;;;131.80;63.93;;;;;;;;;;4446886;32;20347;-55
2021/11/12 21:59:28;;;;;;;144.20;73.60;;;;;;;;;;4446370;32;20283;-57
2021/11/12 22:01:55;;;;;;;131.23;67.90;;;;;;;;;;4444479;32;20260;-54
2021/11/12 22:04:21;;;;;;;140.77;69.50;;;;;;;;;;4444548;32;20628;-54
2021/11/12 22:06:47;;;;;;;131.73;65.73;;;;;;;;;;4461043;32;20465;-55
2021/11/12 22:09:13;;;;;;;137.90;66.83;;;;;;;;;;4463006;32;20307;-55
2021/11/12 22:11:38;;;;;;;137.07;65.17;;;;;;;;;;4465506;32;20300;-55
2021/11/12 22:14:06;;;;;;;133.93;63.13;;;;;;;;;;4466359;32;20287;-55
2021/11/12 22:16:32;;;;;;;134.37;64.17;;;;;;;;;;4464995;32;20260;-54
2021/11/12 22:18:58;;;;;;;137.37;68.50;;;;;;;;;;4466174;32;20204;-55
2021/11/12 22:21:24;;;;;;;131.83;65.70;;;;;;;;;;4466032;32;20232;-55
2021/11/12 22:23:50;;;;;;;129.20;66.00;;;;;;;;;;4465880;32;20346;-55
2021/11/12 22:26:20;;;;;;;135.20;62.33;;;;;;;;;;4465196;32;20960;-54
2021/11/12 22:28:46;;;;;;;132.17;65.53;;;;;;;;;;4465842;32;20222;-54
2021/11/12 22:31:12;;;;;;;138.03;65.07;;;;;;;;;;4464560;32;20314;-54
2021/11/12 22:33:37;;;;;;;132.87;64.33;;;;;;;;;;4465906;32;20285;-55
2021/11/12 22:36:03;;;;;;;153.07;64.30;;;;;;;;;;4465730;32;20244;-55
2021/11/12 22:38:29;;;;;;;155.60;64.63;;;;;;;;;;4465840;32;20283;-55
2021/11/12 22:40:55;;;;;;;124.93;58.13;;;;;;;;;;4465348;32;20303;-54
2021/11/12 22:43:23;;;;;;;118.43;57.03;;;;;;;;;;4465461;32;20283;-56
2021/11/12 22:45:49;;;;;;;110.90;54.53;;;;;;;;;;4465656;32;20208;-54
2021/11/12 22:48:14;;;;;;;117.77;55.53;;;;;;;;;;4465428;32;20309;-54
2021/11/12 22:50:41;;;;;;;127.70;58.23;;;;;;;;;;4465640;32;20274;-54
2021/11/12 22:53:07;;;;;;;128.30;63.67;;;;;;;;;;4465502;32;20627;-54
2021/11/12 22:55:33;;;;;;;123.10;61.57;;;;;;;;;;4465226;32;20291;-56
2021/11/12 22:57:59;;;;;;;118.10;58.10;;;;;;;;;;4465898;32;20280;-55
2021/11/12 23:00:30;;;;;;;105.47;52.30;;;;;;;;;;4464037;32;20319;-55
2021/11/12 23:02:56;;;;;;;107.30;50.97;;;;;;;;;;4465320;32;20273;-56
2021/11/12 23:05:22;;;;;;;96.87;48.57;;;;;;;;;;4462313;32;20314;-55
2021/11/12 23:07:47;;;;;;;96.23;49.23;;;;;;;;;;4449980;32;20308;-56
2021/11/12 23:10:13;;;;;;;100.93;49.47;;;;;;;;;;4448534;32;20339;-54
2021/11/12 23:12:38;;;;;;;100.90;48.80;;;;;;;;;;4463491;32;20262;-55
2021/11/12 23:15:04;;;;;;;96.57;49.70;;;;;;;;;;4465908;32;20347;-54
2021/11/12 23:17:30;;;;;;;101.07;50.27;;;;;;;;;;4465005;32;20311;-54
2021/11/12 23:19:56;;;;;;;112.07;51.23;;;;;;;;;;4465357;32;20276;-56
2021/11/12 23:22:22;;;;;;;110.67;54.43;;;;;;;;;;4464845;32;20606;-55
2021/11/12 23:24:47;;;;;;;110.10;52.23;;;;;;;;;;4459084;32;20423;-53
2021/11/12 23:27:13;;;;;;;101.50;50.23;;;;;;;;;;4449313;32;20275;-54
2021/11/12 23:29:39;;;;;;;99.87;50.20;;;;;;;;;;4449773;32;20291;-55
2021/11/12 23:32:05;;;;;;;101.67;49.40;;;;;;;;;;4449670;32;20228;-54
2021/11/12 23:34:30;;;;;;;109.97;54.77;;;;;;;;;;4449253;32;20307;-56
2021/11/12 23:36:55;;;;;;;102.00;50.00;;;;;;;;;;4460842;32;20324;-55
2021/11/12 23:39:21;;;;;;;97.60;50.40;;;;;;;;;;4464522;32;20704;-55
2021/11/12 23:41:48;;;;;;;98.30;51.83;;;;;;;;;;4464739;32;20652;-54
2021/11/12 23:44:13;;;;;;;122.33;51.53;;;;;;;;;;4464875;32;20220;-54
2021/11/12 23:46:39;;;;;;;101.00;49.60;;;;;;;;;;4463255;32;20274;-54
2021/11/12 23:49:05;;;;;;;98.43;46.47;;;;;;;;;;4449522;32;20284;-53
2021/11/12 23:51:31;;;;;;;113.73;49.87;;;;;;;;;;4448932;32;20646;-54
2021/11/12 23:53:57;;;;;;;96.03;48.57;;;;;;;;;;4449626;32;20684;-56
2021/11/12 23:56:23;;;;;;;89.83;45.47;;;;;;;;;;4448812;32;20288;-55
2021/11/12 23:58:48;;;;;;;115.97;51.97;;;;;;;;;;4449420;32;20321;-56
